sensor_id;sensor_type;location;lat;lon;timestamp;pressure;altitude;pressure_sealevel;temperature
62611;BMP280;48683;48.084;17.272;2022-12-31T00:01:11;100864.63;;;4.35
62611;BMP280;48683;48.084;17.272;2022-12-31T00:03:37;100860.41;;;4.34
62611;BMP280;48683;48.084;17.272;2022-12-31T00:06:19;100859.63;;;4.33
62611;BMP280;48683;48.084;17.272;2022-12-31T00:08:45;100863.97;;;4.38
62611;BMP280;48683;48.084;17.272;2022-12-31T00:11:12;100859.97;;;4.32
62611;BMP280;48683;48.084;17.272;2022-12-31T00:13:37;100869.22;;;4.25
62611;BMP280;48683;48.084;17.272;2022-12-31T00:16:21;100869.47;;;4.32
62611;BMP280;48683;48.084;17.272;2022-12-31T00:18:49;100874.59;;;4.38
62611;BMP280;48683;48.084;17.272;2022-12-31T00:21:15;100874.72;;;4.41
62611;BMP280;48683;48.084;17.272;2022-12-31T00:23:41;100880.94;;;4.45
62611;BMP280;48683;48.084;17.272;2022-12-31T00:26:10;100883.59;;;4.45
62611;BMP280;48683;48.084;17.272;2022-12-31T00:28:36;100879.72;;;4.43
62611;BMP280;48683;48.084;17.272;2022-12-31T00:33:35;100891.25;;;4.47
62611;BMP280;48683;48.084;17.272;2022-12-31T00:36:18;100894.22;;;4.45
62611;BMP280;48683;48.084;17.272;2022-12-31T00:38:45;100902.00;;;4.50
62611;BMP280;48683;48.084;17.272;2022-12-31T00:41:10;100888.25;;;4.48
62611;BMP280;48683;48.084;17.272;2022-12-31T00:43:36;100887.03;;;4.46
62611;BMP280;48683;48.084;17.272;2022-12-31T00:46:02;100889.94;;;4.53
62611;BMP280;48683;48.084;17.272;2022-12-31T00:48:28;100894.34;;;4.49
62611;BMP280;48683;48.084;17.272;2022-12-31T00:50:54;100929.38;;;4.51
62611;BMP280;48683;48.084;17.272;2022-12-31T00:53:21;100933.13;;;4.50
62611;BMP280;48683;48.084;17.272;2022-12-31T00:55:46;100917.50;;;4.48
62611;BMP280;48683;48.084;17.272;2022-12-31T00:58:12;100892.28;;;4.54
62611;BMP280;48683;48.084;17.272;2022-12-31T01:00:37;100888.00;;;4.41
62611;BMP280;48683;48.084;17.272;2022-12-31T01:03:03;100888.25;;;4.48
62611;BMP280;48683;48.084;17.272;2022-12-31T01:05:29;100907.75;;;4.52
62611;BMP280;48683;48.084;17.272;2022-12-31T01:07:55;100905.09;;;4.52
62611;BMP280;48683;48.084;17.272;2022-12-31T01:10:20;100905.22;;;4.56
62611;BMP280;48683;48.084;17.272;2022-12-31T01:13:04;100921.47;;;4.63
62611;BMP280;48683;48.084;17.272;2022-12-31T01:15:34;100928.66;;;4.62
62611;BMP280;48683;48.084;17.272;2022-12-31T01:18:02;100925.34;;;4.65
62611;BMP280;48683;48.084;17.272;2022-12-31T01:20:27;100918.00;;;4.62
62611;BMP280;48683;48.084;17.272;2022-12-31T01:22:52;100918.66;;;4.59
62611;BMP280;48683;48.084;17.272;2022-12-31T01:25:18;100902.56;;;4.56
62611;BMP280;48683;48.084;17.272;2022-12-31T01:27:43;100914.66;;;4.53
62611;BMP280;48683;48.084;17.272;2022-12-31T01:30:09;100920.88;;;4.57
62611;BMP280;48683;48.084;17.272;2022-12-31T01:32:34;100930.84;;;4.60
62611;BMP280;48683;48.084;17.272;2022-12-31T01:35:00;100945.59;;;4.58
62611;BMP280;48683;48.084;17.272;2022-12-31T01:37:25;100953.22;;;4.59
62611;BMP280;48683;48.084;17.272;2022-12-31T01:39:51;100948.69;;;4.60
62611;BMP280;48683;48.084;17.272;2022-12-31T01:42:17;100943.25;;;4.56
62611;BMP280;48683;48.084;17.272;2022-12-31T01:44:53;100931.19;;;4.59
62611;BMP280;48683;48.084;17.272;2022-12-31T01:47:31;100930.41;;;4.58
62611;BMP280;48683;48.084;17.272;2022-12-31T01:50:03;100925.09;;;4.58
62611;BMP280;48683;48.084;17.272;2022-12-31T01:52:37;100925.09;;;4.58
62611;BMP280;48683;48.084;17.272;2022-12-31T01:55:14;100906.22;;;4.51
62611;BMP280;48683;48.084;17.272;2022-12-31T01:57:42;100897.75;;;4.37
62611;BMP280;48683;48.084;17.272;2022-12-31T02:00:09;100891.56;;;4.45
62611;BMP280;48683;48.084;17.272;2022-12-31T02:02:35;100893.19;;;4.38
62611;BMP280;48683;48.084;17.272;2022-12-31T02:05:04;100884.50;;;4.28
62611;BMP280;48683;48.084;17.272;2022-12-31T02:07:29;100885.41;;;4.32
62611;BMP280;48683;48.084;17.272;2022-12-31T02:09:55;100892.75;;;4.36
62611;BMP280;48683;48.084;17.272;2022-12-31T02:12:21;100889.53;;;4.30
62611;BMP280;48683;48.084;17.272;2022-12-31T02:14:49;100900.81;;;4.27
62611;BMP280;48683;48.084;17.272;2022-12-31T02:31:17;100945.97;;;4.48
62611;BMP280;48683;48.084;17.272;2022-12-31T02:33:57;100939.97;;;4.39
62611;BMP280;48683;48.084;17.272;2022-12-31T02:36:32;100942.16;;;4.37
62611;BMP280;48683;48.084;17.272;2022-12-31T02:38:58;100954.03;;;4.39
62611;BMP280;48683;48.084;17.272;2022-12-31T02:41:24;100973.09;;;4.41
62611;BMP280;48683;48.084;17.272;2022-12-31T02:52:52;100939.72;;;4.32
62611;BMP280;48683;48.084;17.272;2022-12-31T02:58:37;100952.53;;;4.29
62611;BMP280;48683;48.084;17.272;2022-12-31T03:01:33;100970.31;;;4.38
62611;BMP280;48683;48.084;17.272;2022-12-31T03:04:19;100977.97;;;4.39
62611;BMP280;48683;48.084;17.272;2022-12-31T03:07:06;100971.53;;;4.40
62611;BMP280;48683;48.084;17.272;2022-12-31T03:09:33;100983.53;;;4.46
62611;BMP280;48683;48.084;17.272;2022-12-31T03:12:00;100979.00;;;4.47
62611;BMP280;48683;48.084;17.272;2022-12-31T03:14:44;100990.41;;;4.47
62611;BMP280;48683;48.084;17.272;2022-12-31T03:17:09;100974.66;;;4.42
62611;BMP280;48683;48.084;17.272;2022-12-31T03:19:35;100988.25;;;4.41
62611;BMP280;48683;48.084;17.272;2022-12-31T03:22:19;100983.16;;;4.36
62611;BMP280;48683;48.084;17.272;2022-12-31T03:25:00;100992.09;;;4.31
62611;BMP280;48683;48.084;17.272;2022-12-31T03:27:45;100988.00;;;4.34
62611;BMP280;48683;48.084;17.272;2022-12-31T03:30:12;100993.44;;;4.37
62611;BMP280;48683;48.084;17.272;2022-12-31T03:32:37;100979.72;;;4.35
62611;BMP280;48683;48.084;17.272;2022-12-31T03:35:04;100988.25;;;4.41
62611;BMP280;48683;48.084;17.272;2022-12-31T03:37:29;100999.25;;;4.39
62611;BMP280;48683;48.084;17.272;2022-12-31T03:39:55;100995.44;;;4.40
62611;BMP280;48683;48.084;17.272;2022-12-31T03:42:21;100994.69;;;4.40
62611;BMP280;48683;48.084;17.272;2022-12-31T03:44:46;100995.00;;;4.38
62611;BMP280;48683;48.084;17.272;2022-12-31T03:47:11;100992.53;;;4.33
62611;BMP280;48683;48.084;17.272;2022-12-31T03:49:37;100988.00;;;4.34
62611;BMP280;48683;48.084;17.272;2022-12-31T03:52:02;100987.88;;;4.30
62611;BMP280;48683;48.084;17.272;2022-12-31T03:54:30;101003.13;;;4.42
62611;BMP280;48683;48.084;17.272;2022-12-31T03:56:56;101006.44;;;4.39
62611;BMP280;48683;48.084;17.272;2022-12-31T03:59:21;100992.66;;;4.37
62611;BMP280;48683;48.084;17.272;2022-12-31T04:01:46;101002.34;;;4.41
62611;BMP280;48683;48.084;17.272;2022-12-31T04:04:12;101008.25;;;4.47
62611;BMP280;48683;48.084;17.272;2022-12-31T04:06:37;101014.97;;;4.44
62611;BMP280;48683;48.084;17.272;2022-12-31T04:09:02;101025.16;;;4.42
62611;BMP280;48683;48.084;17.272;2022-12-31T04:11:28;101027.19;;;4.45
62611;BMP280;48683;48.084;17.272;2022-12-31T04:13:53;101030.75;;;4.49
62611;BMP280;48683;48.084;17.272;2022-12-31T04:16:19;101035.41;;;4.52
62611;BMP280;48683;48.084;17.272;2022-12-31T04:18:44;101021.81;;;4.54
62611;BMP280;48683;48.084;17.272;2022-12-31T04:21:09;101029.44;;;4.55
62611;BMP280;48683;48.084;17.272;2022-12-31T04:23:35;101027.44;;;4.52
62611;BMP280;48683;48.084;17.272;2022-12-31T04:26:00;101037.75;;;4.54
62611;BMP280;48683;48.084;17.272;2022-12-31T04:28:25;101046.53;;;4.54
62611;BMP280;48683;48.084;17.272;2022-12-31T04:30:51;101048.06;;;4.55
62611;BMP280;48683;48.084;17.272;2022-12-31T04:33:16;101060.38;;;4.60
62611;BMP280;48683;48.084;17.272;2022-12-31T04:35:42;101059.59;;;4.59
62611;BMP280;48683;48.084;17.272;2022-12-31T04:38:07;101074.94;;;4.62
62611;BMP280;48683;48.084;17.272;2022-12-31T04:40:33;101077.25;;;4.64
62611;BMP280;48683;48.084;17.272;2022-12-31T04:42:58;101081.47;;;4.65
62611;BMP280;48683;48.084;17.272;2022-12-31T04:45:23;101070.41;;;4.63
62611;BMP280;48683;48.084;17.272;2022-12-31T04:47:49;101074.59;;;4.64
62611;BMP280;48683;48.084;17.272;2022-12-31T04:50:14;101074.72;;;4.67
62611;BMP280;48683;48.084;17.272;2022-12-31T04:52:40;101072.84;;;4.68
62611;BMP280;48683;48.084;17.272;2022-12-31T04:55:05;101075.97;;;4.70
62611;BMP280;48683;48.084;17.272;2022-12-31T04:57:31;101069.09;;;4.69
62611;BMP280;48683;48.084;17.272;2022-12-31T04:59:56;101075.19;;;4.69
62611;BMP280;48683;48.084;17.272;2022-12-31T05:02:21;101072.53;;;4.69
62611;BMP280;48683;48.084;17.272;2022-12-31T05:04:47;101065.84;;;4.63
62611;BMP280;48683;48.084;17.272;2022-12-31T05:07:12;101066.88;;;4.71
62611;BMP280;48683;48.084;17.272;2022-12-31T05:09:37;101066.31;;;4.65
62611;BMP280;48683;48.084;17.272;2022-12-31T05:12:03;101084.28;;;4.68
62611;BMP280;48683;48.084;17.272;2022-12-31T05:14:28;101074.72;;;4.67
62611;BMP280;48683;48.084;17.272;2022-12-31T05:16:54;101073.81;;;4.63
62611;BMP280;48683;48.084;17.272;2022-12-31T05:19:19;101072.84;;;4.68
62611;BMP280;48683;48.084;17.272;2022-12-31T05:21:45;101086.16;;;4.68
62611;BMP280;48683;48.084;17.272;2022-12-31T05:24:30;101064.09;;;4.67
62611;BMP280;48683;48.084;17.272;2022-12-31T05:26:55;101074.16;;;4.62
62611;BMP280;48683;48.084;17.272;2022-12-31T05:29:21;101069.50;;;4.59
62611;BMP280;48683;48.084;17.272;2022-12-31T05:31:46;101070.59;;;4.58
62611;BMP280;48683;48.084;17.272;2022-12-31T05:34:11;101070.25;;;4.59
62611;BMP280;48683;48.084;17.272;2022-12-31T05:36:37;101060.91;;;4.53
62611;BMP280;48683;48.084;17.272;2022-12-31T05:39:02;101065.56;;;4.56
62611;BMP280;48683;48.084;17.272;2022-12-31T05:41:27;101067.00;;;4.54
62611;BMP280;48683;48.084;17.272;2022-12-31T05:43:53;101067.19;;;4.49
62611;BMP280;48683;48.084;17.272;2022-12-31T05:46:18;101064.53;;;4.49
62611;BMP280;48683;48.084;17.272;2022-12-31T05:48:43;101071.09;;;4.51
62611;BMP280;48683;48.084;17.272;2022-12-31T05:51:09;101088.72;;;4.56
62611;BMP280;48683;48.084;17.272;2022-12-31T05:53:34;101090.59;;;4.55
62611;BMP280;48683;48.084;17.272;2022-12-31T05:56:00;101087.19;;;4.55
62611;BMP280;48683;48.084;17.272;2022-12-31T05:58:25;101099.72;;;4.54
62611;BMP280;48683;48.084;17.272;2022-12-31T06:00:51;101103.16;;;4.55
62611;BMP280;48683;48.084;17.272;2022-12-31T06:03:16;101109.22;;;4.55
62611;BMP280;48683;48.084;17.272;2022-12-31T06:05:42;101104.81;;;4.59
62611;BMP280;48683;48.084;17.272;2022-12-31T06:08:08;101112.78;;;4.59
62611;BMP280;48683;48.084;17.272;2022-12-31T06:10:33;101108.59;;;4.58
62611;BMP280;48683;48.084;17.272;2022-12-31T06:12:59;101110.31;;;4.63
62611;BMP280;48683;48.084;17.272;2022-12-31T06:15:24;101110.31;;;4.63
62611;BMP280;48683;48.084;17.272;2022-12-31T06:17:49;101101.59;;;4.54
62611;BMP280;48683;48.084;17.272;2022-12-31T06:20:15;101118.91;;;4.60
62611;BMP280;48683;48.084;17.272;2022-12-31T06:22:40;101136.28;;;4.57
62611;BMP280;48683;48.084;17.272;2022-12-31T06:25:06;101140.78;;;4.65
62611;BMP280;48683;48.084;17.272;2022-12-31T06:27:31;101136.72;;;4.59
62611;BMP280;48683;48.084;17.272;2022-12-31T06:29:57;101156.09;;;4.68
62611;BMP280;48683;48.084;17.272;2022-12-31T06:32:22;101147.19;;;4.64
62611;BMP280;48683;48.084;17.272;2022-12-31T06:34:47;101151.56;;;4.69
62611;BMP280;48683;48.084;17.272;2022-12-31T06:37:13;101164.69;;;4.74
62611;BMP280;48683;48.084;17.272;2022-12-31T06:39:38;101157.91;;;4.76
62611;BMP280;48683;48.084;17.272;2022-12-31T06:42:04;101154.81;;;4.74
62611;BMP280;48683;48.084;17.272;2022-12-31T06:44:29;101148.91;;;4.69
62611;BMP280;48683;48.084;17.272;2022-12-31T06:46:55;101147.47;;;4.71
62611;BMP280;48683;48.084;17.272;2022-12-31T06:49:20;101134.69;;;4.65
62611;BMP280;48683;48.084;17.272;2022-12-31T06:51:46;101148.91;;;4.69
62611;BMP280;48683;48.084;17.272;2022-12-31T06:54:12;101167.00;;;4.75
62611;BMP280;48683;48.084;17.272;2022-12-31T06:56:38;101168.25;;;4.78
62611;BMP280;48683;48.084;17.272;2022-12-31T06:59:04;101162.97;;;4.69
62611;BMP280;48683;48.084;17.272;2022-12-31T07:04:42;101163.38;;;4.80
62611;BMP280;48683;48.084;17.272;2022-12-31T07:12:08;101195.78;;;4.82
62611;BMP280;48683;48.084;17.272;2022-12-31T07:14:51;101186.50;;;4.88
62611;BMP280;48683;48.084;17.272;2022-12-31T07:17:37;101212.13;;;4.93
62611;BMP280;48683;48.084;17.272;2022-12-31T07:20:14;101199.09;;;5.00
62611;BMP280;48683;48.084;17.272;2022-12-31T07:22:40;101193.34;;;4.98
62611;BMP280;48683;48.084;17.272;2022-12-31T07:25:06;101222.41;;;5.03
62611;BMP280;48683;48.084;17.272;2022-12-31T07:30:20;101201.25;;;5.06
62611;BMP280;48683;48.084;17.272;2022-12-31T07:49:10;101209.56;;;5.05
62611;BMP280;48683;48.084;17.272;2022-12-31T07:51:36;101210.34;;;5.05
62611;BMP280;48683;48.084;17.272;2022-12-31T07:54:02;101222.81;;;5.13
62611;BMP280;48683;48.084;17.272;2022-12-31T07:56:28;101208.19;;;5.19
62611;BMP280;48683;48.084;17.272;2022-12-31T08:02:02;101199.56;;;5.22
62611;BMP280;48683;48.084;17.272;2022-12-31T08:04:51;101197.50;;;5.28
62611;BMP280;48683;48.084;17.272;2022-12-31T08:10:29;101208.34;;;5.23
62611;BMP280;48683;48.084;17.272;2022-12-31T08:13:07;101215.78;;;5.30
62611;BMP280;48683;48.084;17.272;2022-12-31T08:15:36;101230.50;;;5.36
62611;BMP280;48683;48.084;17.272;2022-12-31T08:18:01;101218.59;;;5.33
62611;BMP280;48683;48.084;17.272;2022-12-31T08:20:28;101227.28;;;5.42
62611;BMP280;48683;48.084;17.272;2022-12-31T08:28:59;101247.09;;;5.74
62611;BMP280;48683;48.084;17.272;2022-12-31T08:31:35;101254.31;;;5.73
62611;BMP280;48683;48.084;17.272;2022-12-31T08:36:53;101250.28;;;5.88
62611;BMP280;48683;48.084;17.272;2022-12-31T08:39:47;101251.53;;;5.91
62611;BMP280;48683;48.084;17.272;2022-12-31T08:42:38;101232.22;;;5.94
62611;BMP280;48683;48.084;17.272;2022-12-31T08:48:13;101236.00;;;5.84
62611;BMP280;48683;48.084;17.272;2022-12-31T08:50:43;101237.91;;;5.84
62611;BMP280;48683;48.084;17.272;2022-12-31T08:53:09;101237.66;;;5.77
62611;BMP280;48683;48.084;17.272;2022-12-31T08:55:35;101228.75;;;5.72
62611;BMP280;48683;48.084;17.272;2022-12-31T09:00:44;101230.91;;;5.79
62611;BMP280;48683;48.084;17.272;2022-12-31T09:06:29;101235.00;;;5.77
62611;BMP280;48683;48.084;17.272;2022-12-31T09:09:14;101241.34;;;5.84
62611;BMP280;48683;48.084;17.272;2022-12-31T09:11:53;101240.19;;;5.73
62611;BMP280;48683;48.084;17.272;2022-12-31T09:16:56;101228.81;;;5.85
62611;BMP280;48683;48.084;17.272;2022-12-31T09:19:23;101221.75;;;5.89
62611;BMP280;48683;48.084;17.272;2022-12-31T09:21:49;101223.88;;;5.95
62611;BMP280;48683;48.084;17.272;2022-12-31T09:24:15;101217.97;;;5.90
62611;BMP280;48683;48.084;17.272;2022-12-31T09:32:29;101227.06;;;5.89
62611;BMP280;48683;48.084;17.272;2022-12-31T09:35:06;101227.09;;;6.01
62611;BMP280;48683;48.084;17.272;2022-12-31T09:51:13;101206.19;;;6.36
62611;BMP280;48683;48.084;17.272;2022-12-31T10:02:51;101197.63;;;6.79
62611;BMP280;48683;48.084;17.272;2022-12-31T10:05:39;101184.16;;;6.75
62611;BMP280;48683;48.084;17.272;2022-12-31T10:11:04;101194.38;;;6.97
62611;BMP280;48683;48.084;17.272;2022-12-31T10:19:19;101226.53;;;7.41
62611;BMP280;48683;48.084;17.272;2022-12-31T10:28:05;101223.53;;;7.42
62611;BMP280;48683;48.084;17.272;2022-12-31T10:35:33;101203.50;;;7.36
62611;BMP280;48683;48.084;17.272;2022-12-31T10:38:21;101199.72;;;7.37
62611;BMP280;48683;48.084;17.272;2022-12-31T10:48:57;101194.44;;;7.53
62611;BMP280;48683;48.084;17.272;2022-12-31T11:00:06;101197.19;;;7.56
62611;BMP280;48683;48.084;17.272;2022-12-31T11:16:37;101169.00;;;8.02
62611;BMP280;48683;48.084;17.272;2022-12-31T11:21:40;101169.09;;;8.06
62611;BMP280;48683;48.084;17.272;2022-12-31T11:27:21;101157.09;;;8.16
62611;BMP280;48683;48.084;17.272;2022-12-31T11:30:12;101166.50;;;8.25
62611;BMP280;48683;48.084;17.272;2022-12-31T11:33:23;101128.31;;;8.40
62611;BMP280;48683;48.084;17.272;2022-12-31T11:42:11;101152.06;;;8.61
62611;BMP280;48683;48.084;17.272;2022-12-31T11:45:00;101140.06;;;8.71
62611;BMP280;48683;48.084;17.272;2022-12-31T11:53:24;101160.81;;;8.42
62611;BMP280;48683;48.084;17.272;2022-12-31T11:56:11;101159.09;;;8.50
62611;BMP280;48683;48.084;17.272;2022-12-31T11:58:41;101153.13;;;8.41
62611;BMP280;48683;48.084;17.272;2022-12-31T12:01:10;101158.22;;;8.46
62611;BMP280;48683;48.084;17.272;2022-12-31T12:03:38;101162.56;;;8.50
62611;BMP280;48683;48.084;17.272;2022-12-31T12:06:12;101165.63;;;8.52
62611;BMP280;48683;48.084;17.272;2022-12-31T12:08:39;101145.63;;;8.46
62611;BMP280;48683;48.084;17.272;2022-12-31T12:11:10;101165.22;;;8.50
62611;BMP280;48683;48.084;17.272;2022-12-31T12:13:37;101163.75;;;8.53
62611;BMP280;48683;48.084;17.272;2022-12-31T12:16:06;101159.72;;;8.43
62611;BMP280;48683;48.084;17.272;2022-12-31T12:18:43;101170.25;;;8.52
62611;BMP280;48683;48.084;17.272;2022-12-31T12:21:11;101169.47;;;8.51
62611;BMP280;48683;48.084;17.272;2022-12-31T12:23:38;101169.53;;;8.55
62611;BMP280;48683;48.084;17.272;2022-12-31T12:26:05;101153.19;;;8.60
62611;BMP280;48683;48.084;17.272;2022-12-31T12:28:42;101182.91;;;8.71
62611;BMP280;48683;48.084;17.272;2022-12-31T12:31:22;101158.63;;;8.79
62611;BMP280;48683;48.084;17.272;2022-12-31T12:33:49;101154.44;;;8.82
62611;BMP280;48683;48.084;17.272;2022-12-31T12:36:16;101160.66;;;8.86
62611;BMP280;48683;48.084;17.272;2022-12-31T12:38:42;101146.06;;;8.83
62611;BMP280;48683;48.084;17.272;2022-12-31T12:41:22;101146.56;;;8.89
62611;BMP280;48683;48.084;17.272;2022-12-31T12:44:04;101146.44;;;9.01
62611;BMP280;48683;48.084;17.272;2022-12-31T12:46:38;101130.09;;;9.06
62611;BMP280;48683;48.084;17.272;2022-12-31T12:49:20;101143.25;;;9.15
62611;BMP280;48683;48.084;17.272;2022-12-31T13:01:23;101126.34;;;9.30
62611;BMP280;48683;48.084;17.272;2022-12-31T13:11:57;101131.91;;;9.40
62611;BMP280;48683;48.084;17.272;2022-12-31T13:14:40;101132.25;;;9.39
62611;BMP280;48683;48.084;17.272;2022-12-31T13:28:09;101125.69;;;9.56
62611;BMP280;48683;48.084;17.272;2022-12-31T13:30:38;101132.59;;;9.57
62611;BMP280;48683;48.084;17.272;2022-12-31T13:33:13;101122.56;;;9.53
62611;BMP280;48683;48.084;17.272;2022-12-31T13:35:52;101127.25;;;9.57
62611;BMP280;48683;48.084;17.272;2022-12-31T13:48:48;101151.56;;;9.67
62611;BMP280;48683;48.084;17.272;2022-12-31T13:56:40;101143.06;;;9.65
62611;BMP280;48683;48.084;17.272;2022-12-31T13:59:19;101129.66;;;9.65
62611;BMP280;48683;48.084;17.272;2022-12-31T14:02:25;101142.13;;;9.77
62611;BMP280;48683;48.084;17.272;2022-12-31T14:07:57;101129.09;;;9.75
62611;BMP280;48683;48.084;17.272;2022-12-31T14:15:52;101130.88;;;9.68
62611;BMP280;48683;48.084;17.272;2022-12-31T14:18:59;101144.63;;;9.66
62611;BMP280;48683;48.084;17.272;2022-12-31T14:21:28;101146.34;;;9.55
62611;BMP280;48683;48.084;17.272;2022-12-31T14:26:39;101144.25;;;9.45
62611;BMP280;48683;48.084;17.272;2022-12-31T14:34:20;101140.22;;;9.35
62611;BMP280;48683;48.084;17.272;2022-12-31T14:37:26;101130.28;;;9.36
62611;BMP280;48683;48.084;17.272;2022-12-31T14:40:33;101142.06;;;9.31
62611;BMP280;48683;48.084;17.272;2022-12-31T15:41:41;101160.25;;;7.58
62611;BMP280;48683;48.084;17.272;2022-12-31T15:44:18;101166.47;;;7.62
62611;BMP280;48683;48.084;17.272;2022-12-31T15:46:52;101162.91;;;7.58
62611;BMP280;48683;48.084;17.272;2022-12-31T15:49:20;101179.59;;;7.55
62611;BMP280;48683;48.084;17.272;2022-12-31T15:51:55;101172.28;;;7.52
62611;BMP280;48683;48.084;17.272;2022-12-31T15:54:29;101165.63;;;7.46
62611;BMP280;48683;48.084;17.272;2022-12-31T15:56:59;101179.00;;;7.46
62611;BMP280;48683;48.084;17.272;2022-12-31T15:59:25;101185.44;;;7.45
62611;BMP280;48683;48.084;17.272;2022-12-31T16:01:53;101173.75;;;7.50
62611;BMP280;48683;48.084;17.272;2022-12-31T16:04:24;101174.44;;;7.47
62611;BMP280;48683;48.084;17.272;2022-12-31T16:06:51;101176.09;;;7.39
62611;BMP280;48683;48.084;17.272;2022-12-31T16:09:24;101181.44;;;7.39
62611;BMP280;48683;48.084;17.272;2022-12-31T16:11:52;101174.13;;;7.36
62611;BMP280;48683;48.084;17.272;2022-12-31T16:14:35;101168.81;;;7.24
62611;BMP280;48683;48.084;17.272;2022-12-31T16:17:03;101175.25;;;7.35
62611;BMP280;48683;48.084;17.272;2022-12-31T16:19:41;101188.94;;;7.34
62611;BMP280;48683;48.084;17.272;2022-12-31T16:22:12;101185.94;;;7.35
62611;BMP280;48683;48.084;17.272;2022-12-31T16:24:38;101171.56;;;7.28
62611;BMP280;48683;48.084;17.272;2022-12-31T16:27:15;101185.50;;;7.33
62611;BMP280;48683;48.084;17.272;2022-12-31T16:29:43;101188.94;;;7.34
62611;BMP280;48683;48.084;17.272;2022-12-31T16:32:15;101190.41;;;7.31
62611;BMP280;48683;48.084;17.272;2022-12-31T16:34:41;101191.94;;;7.32
62611;BMP280;48683;48.084;17.272;2022-12-31T16:37:14;101185.94;;;7.35
62611;BMP280;48683;48.084;17.272;2022-12-31T16:40:07;101194.38;;;7.37
62611;BMP280;48683;48.084;17.272;2022-12-31T16:42:39;101184.28;;;7.31
62611;BMP280;48683;48.084;17.272;2022-12-31T16:45:27;101180.84;;;7.30
62611;BMP280;48683;48.084;17.272;2022-12-31T16:47:53;101186.06;;;7.27
62611;BMP280;48683;48.084;17.272;2022-12-31T16:50:22;101183.81;;;7.29
62611;BMP280;48683;48.084;17.272;2022-12-31T16:52:49;101184.19;;;7.27
62611;BMP280;48683;48.084;17.272;2022-12-31T16:55:24;101193.41;;;7.30
62611;BMP280;48683;48.084;17.272;2022-12-31T16:57:52;101202.00;;;7.23
62611;BMP280;48683;48.084;17.272;2022-12-31T17:00:20;101204.88;;;7.30
62611;BMP280;48683;48.084;17.272;2022-12-31T17:05:32;101208.66;;;7.29
62611;BMP280;48683;48.084;17.272;2022-12-31T17:08:25;101200.53;;;7.26
62611;BMP280;48683;48.084;17.272;2022-12-31T17:10:51;101207.88;;;7.29
62611;BMP280;48683;48.084;17.272;2022-12-31T17:13:27;101203.22;;;7.26
62611;BMP280;48683;48.084;17.272;2022-12-31T17:15:54;101202.78;;;7.24
62611;BMP280;48683;48.084;17.272;2022-12-31T17:18:22;101202.78;;;7.24
62611;BMP280;48683;48.084;17.272;2022-12-31T17:20:52;101198.78;;;7.18
62611;BMP280;48683;48.084;17.272;2022-12-31T17:23:27;101202.22;;;7.18
62611;BMP280;48683;48.084;17.272;2022-12-31T17:26:09;101194.13;;;7.14
62611;BMP280;48683;48.084;17.272;2022-12-31T17:28:43;101210.91;;;7.15
62611;BMP280;48683;48.084;17.272;2022-12-31T17:36:39;101212.59;;;7.07
62611;BMP280;48683;48.084;17.272;2022-12-31T17:39:15;101204.38;;;7.00
62611;BMP280;48683;48.084;17.272;2022-12-31T17:41:43;101201.56;;;7.09
62611;BMP280;48683;48.084;17.272;2022-12-31T17:44:11;101209.47;;;7.05
62611;BMP280;48683;48.084;17.272;2022-12-31T17:46:39;101204.91;;;7.06
62611;BMP280;48683;48.084;17.272;2022-12-31T17:49:04;101205.38;;;7.08
62611;BMP280;48683;48.084;17.272;2022-12-31T17:51:30;101194.91;;;7.03
62611;BMP280;48683;48.084;17.272;2022-12-31T17:53:55;101184.38;;;6.94
62611;BMP280;48683;48.084;17.272;2022-12-31T17:56:22;101186.94;;;6.91
62611;BMP280;48683;48.084;17.272;2022-12-31T17:58:50;101193.28;;;6.74
62611;BMP280;48683;48.084;17.272;2022-12-31T18:01:18;101183.06;;;6.76
62611;BMP280;48683;48.084;17.272;2022-12-31T18:03:45;101186.28;;;6.69
62611;BMP280;48683;48.084;17.272;2022-12-31T18:06:12;101196.84;;;6.66
62611;BMP280;48683;48.084;17.272;2022-12-31T18:08:37;101201.06;;;6.55
62611;BMP280;48683;48.084;17.272;2022-12-31T18:11:03;101194.72;;;6.47
62611;BMP280;48683;48.084;17.272;2022-12-31T18:13:28;101205.28;;;6.44
62611;BMP280;48683;48.084;17.272;2022-12-31T18:15:55;101206.19;;;6.48
62611;BMP280;48683;48.084;17.272;2022-12-31T18:18:27;101207.06;;;6.52
62611;BMP280;48683;48.084;17.272;2022-12-31T18:20:59;101200.53;;;6.49
62611;BMP280;48683;48.084;17.272;2022-12-31T18:23:27;101209.41;;;6.41
62611;BMP280;48683;48.084;17.272;2022-12-31T18:25:53;101208.28;;;6.42
62611;BMP280;48683;48.084;17.272;2022-12-31T18:28:19;101211.97;;;6.38
62611;BMP280;48683;48.084;17.272;2022-12-31T18:30:45;101214.16;;;6.24
62611;BMP280;48683;48.084;17.272;2022-12-31T18:33:11;101205.50;;;6.27
62611;BMP280;48683;48.084;17.272;2022-12-31T18:35:38;101206.50;;;6.34
62611;BMP280;48683;48.084;17.272;2022-12-31T18:38:14;101203.28;;;6.29
62611;BMP280;48683;48.084;17.272;2022-12-31T18:40:41;101217.06;;;6.18
62611;BMP280;48683;48.084;17.272;2022-12-31T18:43:16;101213.25;;;6.19
62611;BMP280;48683;48.084;17.272;2022-12-31T18:45:42;101215.16;;;6.19
62611;BMP280;48683;48.084;17.272;2022-12-31T18:48:07;101203.59;;;6.15
62611;BMP280;48683;48.084;17.272;2022-12-31T18:50:33;101193.28;;;6.13
62611;BMP280;48683;48.084;17.272;2022-12-31T18:52:59;101187.03;;;6.09
62611;BMP280;48683;48.084;17.272;2022-12-31T18:55:29;101187.69;;;6.06
62611;BMP280;48683;48.084;17.272;2022-12-31T18:57:56;101183.78;;;6.04
62611;BMP280;48683;48.084;17.272;2022-12-31T19:00:21;101184.47;;;6.01
62611;BMP280;48683;48.084;17.272;2022-12-31T19:02:47;101182.91;;;6.00
62611;BMP280;48683;48.084;17.272;2022-12-31T19:07:45;101190.47;;;5.98
62611;BMP280;48683;48.084;17.272;2022-12-31T19:10:14;101187.22;;;5.92
62611;BMP280;48683;48.084;17.272;2022-12-31T19:12:40;101182.78;;;5.96
62611;BMP280;48683;48.084;17.272;2022-12-31T19:15:51;101188.81;;;5.85
62611;BMP280;48683;48.084;17.272;2022-12-31T19:18:17;101186.50;;;5.83
62611;BMP280;48683;48.084;17.272;2022-12-31T19:20:42;101187.09;;;5.89
62611;BMP280;48683;48.084;17.272;2022-12-31T19:23:14;101195.88;;;5.68